PWSweather.com
Personal Weather Stations
Station Observations
KMIEASTT1
Tawas Bay, East Tawas, MI 48730

Tawas BayEast Tawas, MI 48730

Lat: 44.28, Lon: -83.48

Elevation: 600

Station Type: Davis VantagePro

http://www.tawasbayweather.com

High Low Average
Temperature 75.4°F24.1°C 64.2°F17.9°C 69.5°F20.8°C
Dew Point 64.0°F17.8°C 34.5°F1.4°C 49.2°F9.6°C
Winds 31.0 mph 49.9 kmh 5.0 mph 8.0 kmh 15.0 mph WSW24.1 kmh WSW
Wind Gusts 36.0 mph57.9 kmh 11.0 mph17.7 kmh 23.0 mph37.0 kmh
Humidity 90% 23% 54%
Pressure 29.95 in1014.2 mb 29.89 in1012.2 mb -
Precipitation 0.00 in0.0 mm - -
Hour Temp Dew Point Humidity Winds Wind Gusts Pressure Precip Precip Rate Daily Precip Total
12:01 AM 68.9°F20.5°C 65.2°F18.4°C 88% 6.0 mph SW9.7 kmh SW 11.0 mph17.7 kmh 29.95 in1014.2 mb 0.00 in0.0 mm 0.00 in/hr0.0 mm/hr 0.00 in0.0 mm
12:15 AM 67.9°F19.9°C 64.2°F17.9°C 88% 9.0 mph SW14.5 kmh SW 10.0 mph16.1 kmh 29.95 in1014.2 mb 0.00 in0.0 mm 0.00 in/hr0.0 mm/hr 0.00 in0.0 mm
12:30 AM 67.1°F19.5°C 64.1°F17.8°C 90% 10.0 mph SW16.1 kmh SW 12.0 mph19.3 kmh 29.94 in1013.9 mb 0.00 in0.0 mm 0.00 in/hr0.0 mm/hr 0.00 in0.0 mm
12:45 AM 66.3°F19.1°C 63.0°F17.2°C 89% 7.0 mph SW11.3 kmh SW 7.0 mph11.3 kmh 29.94 in1013.9 mb 0.00 in0.0 mm 0.00 in/hr0.0 mm/hr 0.00 in0.0 mm
01:01 AM 67.3°F19.6°C 64.0°F17.8°C 89% 12.0 mph SW19.3 kmh SW 14.0 mph22.5 kmh 29.94 in1013.9 mb 0.00 in0.0 mm 0.00 in/hr0.0 mm/hr 0.00 in0.0 mm
01:15 AM 67.9°F19.9°C 63.9°F17.7°C 87% 11.0 mph SW17.7 kmh SW 17.0 mph27.4 kmh 29.94 in1013.9 mb 0.00 in0.0 mm 0.00 in/hr0.0 mm/hr 0.00 in0.0 mm
01:30 AM 67.9°F19.9°C 63.6°F17.6°C 86% 11.0 mph SW17.7 kmh SW 13.0 mph20.9 kmh 29.94 in1013.9 mb 0.00 in0.0 mm 0.00 in/hr0.0 mm/hr 0.00 in0.0 mm
01:45 AM 67.8°F19.9°C 63.5°F17.5°C 86% 11.0 mph SW17.7 kmh SW 15.0 mph24.1 kmh 29.94 in1013.9 mb 0.00 in0.0 mm 0.00 in/hr0.0 mm/hr 0.00 in0.0 mm
02:01 AM 66.9°F19.4°C 62.9°F17.2°C 87% 10.0 mph SW16.1 kmh SW 11.0 mph17.7 kmh 29.94 in1013.9 mb 0.00 in0.0 mm 0.00 in/hr0.0 mm/hr 0.00 in0.0 mm
02:15 AM 66.1°F18.9°C 62.8°F17.1°C 89% 10.0 mph SW16.1 kmh SW 12.0 mph19.3 kmh 29.94 in1013.9 mb 0.00 in0.0 mm 0.00 in/hr0.0 mm/hr 0.00 in0.0 mm
02:30 AM 65.8°F18.8°C 62.2°F16.8°C 88% 11.0 mph SW17.7 kmh SW 11.0 mph17.7 kmh 29.92 in1013.2 mb 0.00 in0.0 mm 0.00 in/hr0.0 mm/hr 0.00 in0.0 mm
02:45 AM 65.6°F18.7°C 62.0°F16.7°C 88% 5.0 mph SW8.0 kmh SW 12.0 mph19.3 kmh 29.92 in1013.2 mb 0.00 in0.0 mm 0.00 in/hr0.0 mm/hr 0.00 in0.0 mm
03:00 AM 65.3°F18.5°C 61.7°F16.5°C 88% 7.0 mph SW11.3 kmh SW 11.0 mph17.7 kmh 29.92 in1013.2 mb 0.00 in0.0 mm 0.00 in/hr0.0 mm/hr 0.00 in0.0 mm
03:15 AM 65.5°F18.6°C 62.5°F16.9°C 90% 10.0 mph SW16.1 kmh SW 13.0 mph20.9 kmh 29.92 in1013.2 mb 0.00 in0.0 mm 0.00 in/hr0.0 mm/hr 0.00 in0.0 mm
03:30 AM 66.6°F19.2°C 62.6°F17.0°C 87% 13.0 mph SW20.9 kmh SW 19.0 mph30.6 kmh 29.92 in1013.2 mb 0.00 in0.0 mm 0.00 in/hr0.0 mm/hr 0.00 in0.0 mm
03:45 AM 66.8°F19.3°C 61.8°F16.6°C 84% 16.0 mph SW25.7 kmh SW 17.0 mph27.4 kmh 29.92 in1013.2 mb 0.00 in0.0 mm 0.00 in/hr0.0 mm/hr 0.00 in0.0 mm
04:01 AM 66.3°F19.1°C 61.3°F16.3°C 84% 14.0 mph WSW22.5 kmh WSW 17.0 mph27.4 kmh 29.92 in1013.2 mb 0.00 in0.0 mm 0.00 in/hr0.0 mm/hr 0.00 in0.0 mm
04:15 AM 66.1°F18.9°C 61.5°F16.4°C 85% 10.0 mph SW16.1 kmh SW 16.0 mph25.7 kmh 29.92 in1013.2 mb 0.00 in0.0 mm 0.00 in/hr0.0 mm/hr 0.00 in0.0 mm
04:30 AM 66.4°F19.1°C 61.8°F16.6°C 85% 10.0 mph SW16.1 kmh SW 16.0 mph25.7 kmh 29.92 in1013.2 mb 0.00 in0.0 mm 0.00 in/hr0.0 mm/hr 0.00 in0.0 mm
04:45 AM 66.0°F18.9°C 61.0°F16.1°C 84% 11.0 mph SW17.7 kmh SW 14.0 mph22.5 kmh 29.92 in1013.2 mb 0.00 in0.0 mm 0.00 in/hr0.0 mm/hr 0.00 in0.0 mm
05:01 AM 66.0°F18.9°C 60.7°F15.9°C 83% 11.0 mph SW17.7 kmh SW 17.0 mph27.4 kmh 29.92 in1013.2 mb 0.00 in0.0 mm 0.00 in/hr0.0 mm/hr 0.00 in0.0 mm
05:15 AM 66.0°F18.9°C 60.4°F15.8°C 82% 11.0 mph SW17.7 kmh SW 18.0 mph29.0 kmh 29.92 in1013.2 mb 0.00 in0.0 mm 0.00 in/hr0.0 mm/hr 0.00 in0.0 mm
05:30 AM 65.8°F18.8°C 59.5°F15.3°C 80% 13.0 mph WSW20.9 kmh WSW 17.0 mph27.4 kmh 29.93 in1013.5 mb 0.00 in0.0 mm 0.00 in/hr0.0 mm/hr 0.00 in0.0 mm
05:45 AM 65.5°F18.6°C 58.5°F14.7°C 78% 13.0 mph SW20.9 kmh SW 17.0 mph27.4 kmh 29.93 in1013.5 mb 0.00 in0.0 mm 0.00 in/hr0.0 mm/hr 0.00 in0.0 mm
06:01 AM 65.5°F18.6°C 57.4°F14.1°C 75% 13.0 mph SW20.9 kmh SW 19.0 mph30.6 kmh 29.93 in1013.5 mb 0.00 in0.0 mm 0.00 in/hr0.0 mm/hr 0.00 in0.0 mm
06:15 AM 65.0°F18.3°C 56.9°F13.8°C 75% 12.0 mph SW19.3 kmh SW 17.0 mph27.4 kmh 29.94 in1013.9 mb 0.00 in0.0 mm 0.00 in/hr0.0 mm/hr 0.00 in0.0 mm
06:30 AM 64.8°F18.2°C 56.7°F13.7°C 75% 12.0 mph SW19.3 kmh SW 16.0 mph25.7 kmh 29.94 in1013.9 mb 0.00 in0.0 mm 0.00 in/hr0.0 mm/hr 0.00 in0.0 mm
06:45 AM 64.3°F17.9°C 56.2°F13.4°C 75% 12.0 mph WSW19.3 kmh WSW 16.0 mph25.7 kmh 29.94 in1013.9 mb 0.00 in0.0 mm 0.00 in/hr0.0 mm/hr 0.00 in0.0 mm
07:01 AM 64.2°F17.9°C 55.8°F13.2°C 74% 10.0 mph WSW16.1 kmh WSW 17.0 mph27.4 kmh 29.94 in1013.9 mb 0.00 in0.0 mm 0.00 in/hr0.0 mm/hr 0.00 in0.0 mm
07:15 AM 64.2°F17.9°C 55.0°F12.8°C 72% 14.0 mph SW22.5 kmh SW 20.0 mph32.2 kmh 29.94 in1013.9 mb 0.00 in0.0 mm 0.00 in/hr0.0 mm/hr 0.00 in0.0 mm
07:30 AM 64.2°F17.9°C 55.0°F12.8°C 72% 16.0 mph WSW25.7 kmh WSW 22.0 mph35.4 kmh 29.94 in1013.9 mb 0.00 in0.0 mm 0.00 in/hr0.0 mm/hr 0.00 in0.0 mm
07:45 AM 64.3°F17.9°C 54.3°F12.4°C 70% 13.0 mph SW20.9 kmh SW 25.0 mph40.2 kmh 29.93 in1013.5 mb 0.00 in0.0 mm 0.00 in/hr0.0 mm/hr 0.00 in0.0 mm
08:01 AM 64.5°F18.1°C 54.1°F12.3°C 69% 21.0 mph WSW33.8 kmh WSW 21.0 mph33.8 kmh 29.93 in1013.5 mb 0.00 in0.0 mm 0.00 in/hr0.0 mm/hr 0.00 in0.0 mm
08:15 AM 64.7°F18.2°C 53.1°F11.7°C 66% 18.0 mph W29.0 kmh W 24.0 mph38.6 kmh 29.93 in1013.5 mb 0.00 in0.0 mm 0.00 in/hr0.0 mm/hr 0.00 in0.0 mm
08:30 AM 64.8°F18.2°C 51.9°F11.1°C 63% 11.0 mph WNW17.7 kmh WNW 29.0 mph46.7 kmh 29.93 in1013.5 mb 0.00 in0.0 mm 0.00 in/hr0.0 mm/hr 0.00 in0.0 mm
08:45 AM 65.0°F18.3°C 52.1°F11.2°C 63% 18.0 mph WSW29.0 kmh WSW 27.0 mph43.5 kmh 29.93 in1013.5 mb 0.00 in0.0 mm 0.00 in/hr0.0 mm/hr 0.00 in0.0 mm
09:01 AM 65.3°F18.5°C 52.4°F11.3°C 63% 22.0 mph WSW35.4 kmh WSW 26.0 mph41.8 kmh 29.93 in1013.5 mb 0.00 in0.0 mm 0.00 in/hr0.0 mm/hr 0.00 in0.0 mm
09:15 AM 65.8°F18.8°C 50.6°F10.3°C 58% 14.0 mph W22.5 kmh W 28.0 mph45.1 kmh 29.93 in1013.5 mb 0.00 in0.0 mm 0.00 in/hr0.0 mm/hr 0.00 in0.0 mm
09:30 AM 66.0°F18.9°C 49.4°F9.7°C 55% 26.0 mph WSW41.8 kmh WSW 30.0 mph48.3 kmh 29.93 in1013.5 mb 0.00 in0.0 mm 0.00 in/hr0.0 mm/hr 0.00 in0.0 mm
09:45 AM 66.6°F19.2°C 49.0°F9.4°C 53% 20.0 mph WSW32.2 kmh WSW 28.0 mph45.1 kmh 29.93 in1013.5 mb 0.00 in0.0 mm 0.00 in/hr0.0 mm/hr 0.00 in0.0 mm
10:01 AM 66.8°F19.3°C 48.6°F9.2°C 52% 25.0 mph WSW40.2 kmh WSW 34.0 mph54.7 kmh 29.93 in1013.5 mb 0.00 in0.0 mm 0.00 in/hr0.0 mm/hr 0.00 in0.0 mm
10:15 AM 67.3°F19.6°C 48.0°F8.9°C 50% 22.0 mph WSW35.4 kmh WSW 26.0 mph41.8 kmh 29.93 in1013.5 mb 0.00 in0.0 mm 0.00 in/hr0.0 mm/hr 0.00 in0.0 mm
10:30 AM 68.9°F20.5°C 46.7°F8.2°C 45% 14.0 mph SW22.5 kmh SW 29.0 mph46.7 kmh 29.93 in1013.5 mb 0.00 in0.0 mm 0.00 in/hr0.0 mm/hr 0.00 in0.0 mm
10:45 AM 69.3°F20.7°C 44.6°F7.0°C 41% 22.0 mph WSW35.4 kmh WSW 30.0 mph48.3 kmh 29.92 in1013.2 mb 0.00 in0.0 mm 0.00 in/hr0.0 mm/hr 0.00 in0.0 mm
11:01 AM 68.8°F20.4°C 48.3°F9.1°C 48% 26.0 mph WSW41.8 kmh WSW 30.0 mph48.3 kmh 29.92 in1013.2 mb 0.00 in0.0 mm 0.00 in/hr0.0 mm/hr 0.00 in0.0 mm
11:15 AM 69.9°F21.1°C 43.2°F6.2°C 38% 10.0 mph NW16.1 kmh NW 26.0 mph41.8 kmh 29.92 in1013.2 mb 0.00 in0.0 mm 0.00 in/hr0.0 mm/hr 0.00 in0.0 mm
11:30 AM 70.4°F21.3°C 41.5°F5.3°C 35% 18.0 mph WSW29.0 kmh WSW 31.0 mph49.9 kmh 29.92 in1013.2 mb 0.00 in0.0 mm 0.00 in/hr0.0 mm/hr 0.00 in0.0 mm
11:46 AM 70.8°F21.6°C 42.6°F5.9°C 36% 22.0 mph WSW35.4 kmh WSW 29.0 mph46.7 kmh 29.92 in1013.2 mb 0.00 in0.0 mm 0.00 in/hr0.0 mm/hr 0.00 in0.0 mm
12:01 PM 70.9°F21.6°C 45.4°F7.4°C 40% 16.0 mph WSW25.7 kmh WSW 28.0 mph45.1 kmh 29.92 in1013.2 mb 0.00 in0.0 mm 0.00 in/hr0.0 mm/hr 0.00 in0.0 mm
12:15 PM 71.5°F21.9°C 45.3°F7.4°C 39% 21.0 mph WSW33.8 kmh WSW 30.0 mph48.3 kmh 29.92 in1013.2 mb 0.00 in0.0 mm 0.00 in/hr0.0 mm/hr 0.00 in0.0 mm
12:30 PM 72.5°F22.5°C 38.5°F3.6°C 29% 31.0 mph WSW49.9 kmh WSW 31.0 mph49.9 kmh 29.91 in1012.9 mb 0.00 in0.0 mm 0.00 in/hr0.0 mm/hr 0.00 in0.0 mm
12:46 PM 71.8°F22.1°C 37.9°F3.3°C 29% 27.0 mph WSW43.5 kmh WSW 36.0 mph57.9 kmh 29.91 in1012.9 mb 0.00 in0.0 mm 0.00 in/hr0.0 mm/hr 0.00 in0.0 mm
01:01 PM 73.0°F22.8°C 38.0°F3.3°C 28% 18.0 mph WSW29.0 kmh WSW 32.0 mph51.5 kmh 29.90 in1012.5 mb 0.00 in0.0 mm 0.00 in/hr0.0 mm/hr 0.00 in0.0 mm
01:15 PM 74.0°F23.3°C 37.0°F2.8°C 26% 8.0 mph W12.9 kmh W 24.0 mph38.6 kmh 29.90 in1012.5 mb 0.00 in0.0 mm 0.00 in/hr0.0 mm/hr 0.00 in0.0 mm
01:30 PM 74.7°F23.7°C 34.5°F1.4°C 23% 14.0 mph NW22.5 kmh NW 22.0 mph35.4 kmh 29.89 in1012.2 mb 0.00 in0.0 mm 0.00 in/hr0.0 mm/hr 0.00 in0.0 mm
01:45 PM 75.1°F23.9°C 37.9°F3.3°C 26% 18.0 mph W29.0 kmh W 24.0 mph38.6 kmh 29.90 in1012.5 mb 0.00 in0.0 mm 0.00 in/hr0.0 mm/hr 0.00 in0.0 mm
02:01 PM 74.2°F23.4°C 37.1°F2.8°C 26% 19.0 mph W30.6 kmh W 22.0 mph35.4 kmh 29.90 in1012.5 mb 0.00 in0.0 mm 0.00 in/hr0.0 mm/hr 0.00 in0.0 mm
02:15 PM 73.9°F23.3°C 37.9°F3.3°C 27% 24.0 mph SW38.6 kmh SW 28.0 mph45.1 kmh 29.90 in1012.5 mb 0.00 in0.0 mm 0.00 in/hr0.0 mm/hr 0.00 in0.0 mm
02:30 PM 74.4°F23.6°C 38.3°F3.5°C 27% 30.0 mph WSW48.3 kmh WSW 32.0 mph51.5 kmh 29.90 in1012.5 mb 0.00 in0.0 mm 0.00 in/hr0.0 mm/hr 0.00 in0.0 mm
02:45 PM 74.0°F23.3°C 39.8°F4.3°C 29% 24.0 mph W38.6 kmh W 35.0 mph56.3 kmh 29.91 in1012.9 mb 0.00 in0.0 mm 0.00 in/hr0.0 mm/hr 0.00 in0.0 mm
03:01 PM 74.7°F23.7°C 40.4°F4.7°C 29% 10.0 mph WSW16.1 kmh WSW 24.0 mph38.6 kmh 29.90 in1012.5 mb 0.00 in0.0 mm 0.00 in/hr0.0 mm/hr 0.00 in0.0 mm
03:15 PM 73.9°F23.3°C 44.6°F7.0°C 35% 25.0 mph WSW40.2 kmh WSW 29.0 mph46.7 kmh 29.91 in1012.9 mb 0.00 in0.0 mm 0.00 in/hr0.0 mm/hr 0.00 in0.0 mm
03:30 PM 74.7°F23.7°C 43.7°F6.5°C 33% 10.0 mph W16.1 kmh W 25.0 mph40.2 kmh 29.92 in1013.2 mb 0.00 in0.0 mm 0.00 in/hr0.0 mm/hr 0.00 in0.0 mm
03:45 PM 73.9°F23.3°C 43.0°F6.1°C 33% 11.0 mph WNW17.7 kmh WNW 33.0 mph53.1 kmh 29.91 in1012.9 mb 0.00 in0.0 mm 0.00 in/hr0.0 mm/hr 0.00 in0.0 mm
04:01 PM 74.6°F23.7°C 44.4°F6.9°C 34% 18.0 mph W29.0 kmh W 26.0 mph41.8 kmh 29.91 in1012.9 mb 0.00 in0.0 mm 0.00 in/hr0.0 mm/hr 0.00 in0.0 mm
04:16 PM 75.4°F24.1°C 40.1°F4.5°C 28% 10.0 mph NW16.1 kmh NW 22.0 mph35.4 kmh 29.91 in1012.9 mb 0.00 in0.0 mm 0.00 in/hr0.0 mm/hr 0.00 in0.0 mm
04:30 PM 74.7°F23.7°C 39.5°F4.2°C 28% 14.0 mph W22.5 kmh W 29.0 mph46.7 kmh 29.92 in1013.2 mb 0.00 in0.0 mm 0.00 in/hr0.0 mm/hr 0.00 in0.0 mm
04:45 PM 74.4°F23.6°C 39.2°F4.0°C 28% 17.0 mph WSW27.4 kmh WSW 29.0 mph46.7 kmh 29.92 in1013.2 mb 0.00 in0.0 mm 0.00 in/hr0.0 mm/hr 0.00 in0.0 mm
05:01 PM 74.9°F23.8°C 38.7°F3.7°C 27% 6.0 mph WNW9.7 kmh WNW 21.0 mph33.8 kmh 29.92 in1013.2 mb 0.00 in0.0 mm 0.00 in/hr0.0 mm/hr 0.00 in0.0 mm
05:15 PM 74.4°F23.6°C 39.2°F4.0°C 28% 5.0 mph W8.0 kmh W 29.0 mph46.7 kmh 29.92 in1013.2 mb 0.00 in0.0 mm 0.00 in/hr0.0 mm/hr 0.00 in0.0 mm
05:30 PM 74.2°F23.4°C 39.9°F4.4°C 29% 19.0 mph WSW30.6 kmh WSW 26.0 mph41.8 kmh 29.92 in1013.2 mb 0.00 in0.0 mm 0.00 in/hr0.0 mm/hr 0.00 in0.0 mm
05:45 PM 74.0°F23.3°C 40.6°F4.8°C 30% 17.0 mph WSW27.4 kmh WSW 22.0 mph35.4 kmh 29.93 in1013.5 mb 0.00 in0.0 mm 0.00 in/hr0.0 mm/hr 0.00 in0.0 mm
06:01 PM 74.0°F23.3°C 38.9°F3.8°C 28% 7.0 mph NW11.3 kmh NW 34.0 mph54.7 kmh 29.94 in1013.9 mb 0.00 in0.0 mm 0.00 in/hr0.0 mm/hr 0.00 in0.0 mm
06:15 PM 74.9°F23.8°C 38.7°F3.7°C 27% 13.0 mph NW20.9 kmh NW 20.0 mph32.2 kmh 29.94 in1013.9 mb 0.00 in0.0 mm 0.00 in/hr0.0 mm/hr 0.00 in0.0 mm
06:30 PM 74.4°F23.6°C 38.3°F3.5°C 27% 14.0 mph WNW22.5 kmh WNW 26.0 mph41.8 kmh 29.94 in1013.9 mb 0.00 in0.0 mm 0.00 in/hr0.0 mm/hr 0.00 in0.0 mm
06:45 PM 74.0°F23.3°C 38.9°F3.8°C 28% 9.0 mph W14.5 kmh W 27.0 mph43.5 kmh 29.94 in1013.9 mb 0.00 in0.0 mm 0.00 in/hr0.0 mm/hr 0.00 in0.0 mm
07:02 PM 73.7°F23.2°C 38.6°F3.7°C 28% 9.0 mph NW14.5 kmh NW 25.0 mph40.2 kmh 29.94 in1013.9 mb 0.00 in0.0 mm 0.00 in/hr0.0 mm/hr 0.00 in0.0 mm
07:15 PM 73.5°F23.1°C 38.4°F3.6°C 28% 5.0 mph NW8.0 kmh NW 20.0 mph32.2 kmh 29.95 in1014.2 mb 0.00 in0.0 mm 0.00 in/hr0.0 mm/hr 0.00 in0.0 mm
07:30 PM 73.0°F22.8°C 38.0°F3.3°C 28% 8.0 mph NW12.9 kmh NW 19.0 mph30.6 kmh 29.95 in1014.2 mb 0.00 in0.0 mm 0.00 in/hr0.0 mm/hr 0.00 in0.0 mm
07:45 PM 72.8°F22.7°C 40.4°F4.7°C 31% 3.0 mph WNW4.8 kmh WNW 17.0 mph27.4 kmh 29.95 in1014.2 mb 0.00 in0.0 mm 0.00 in/hr0.0 mm/hr 0.00 in0.0 mm
08:02 PM 72.5°F22.5°C 40.2°F4.6°C 31% 2.0 mph WNW3.2 kmh WNW 13.0 mph20.9 kmh 29.96 in1014.6 mb 0.00 in0.0 mm 0.00 in/hr0.0 mm/hr 0.00 in0.0 mm
08:15 PM 72.0°F22.2°C 39.7°F4.3°C 31% 7.0 mph NW11.3 kmh NW 14.0 mph22.5 kmh 29.97 in1014.9 mb 0.00 in0.0 mm 0.00 in/hr0.0 mm/hr 0.00 in0.0 mm
08:30 PM 71.3°F21.8°C 40.7°F4.8°C 33% 7.0 mph WNW11.3 kmh WNW 11.0 mph17.7 kmh 29.96 in1014.6 mb 0.00 in0.0 mm 0.00 in/hr0.0 mm/hr 0.00 in0.0 mm
08:45 PM 70.6°F21.4°C 39.3°F4.1°C 32% 5.0 mph W8.0 kmh W 11.0 mph17.7 kmh 29.97 in1014.9 mb 0.00 in0.0 mm 0.00 in/hr0.0 mm/hr 0.00 in0.0 mm
09:01 PM 69.8°F21.0°C 43.1°F6.2°C 38% 6.0 mph WSW9.7 kmh WSW 7.0 mph11.3 kmh 29.97 in1014.9 mb 0.00 in0.0 mm 0.00 in/hr0.0 mm/hr 0.00 in0.0 mm
09:15 PM 69.1°F20.6°C 42.5°F5.8°C 38% Calm Calm 3.0 mph4.8 kmh 29.97 in1014.9 mb 0.00 in0.0 mm 0.00 in/hr0.0 mm/hr 0.00 in0.0 mm
09:31 PM 68.4°F20.2°C 42.5°F5.8°C 39% Calm Calm 7.0 mph11.3 kmh 29.98 in1015.2 mb 0.00 in0.0 mm 0.00 in/hr0.0 mm/hr 0.00 in0.0 mm
09:45 PM 67.9°F19.9°C 42.1°F5.6°C 39% Calm Calm 2.0 mph3.2 kmh 29.99 in1015.6 mb 0.00 in0.0 mm 0.00 in/hr0.0 mm/hr 0.00 in0.0 mm
10:01 PM 65.8°F18.8°C 45.0°F7.2°C 47% Calm Calm 6.0 mph9.7 kmh 30.02 in1016.6 mb 0.00 in0.0 mm 0.00 in/hr0.0 mm/hr 0.00 in0.0 mm
10:15 PM 62.7°F17.1°C 45.3°F7.4°C 53% Calm Calm 3.0 mph4.8 kmh 30.04 in1017.3 mb 0.00 in0.0 mm 0.00 in/hr0.0 mm/hr 0.00 in0.0 mm
10:30 PM 60.4°F15.8°C 45.1°F7.3°C 57% 8.0 mph NW12.9 kmh NW 10.0 mph16.1 kmh 30.06 in1017.9 mb 0.00 in0.0 mm 0.00 in/hr0.0 mm/hr 0.00 in0.0 mm
10:45 PM 59.6°F15.3°C 43.4°F6.3°C 55% 2.0 mph NW3.2 kmh NW 11.0 mph17.7 kmh 30.07 in1018.3 mb 0.00 in0.0 mm 0.00 in/hr0.0 mm/hr 0.00 in0.0 mm
11:00 PM 59.0°F15.0°C 43.3°F6.3°C 56% 6.0 mph N9.7 kmh N 8.0 mph12.9 kmh 30.07 in1018.3 mb 0.00 in0.0 mm 0.00 in/hr0.0 mm/hr 0.00 in0.0 mm
11:15 PM 58.4°F14.7°C 43.2°F6.2°C 57% Calm Calm 7.0 mph11.3 kmh 30.08 in1018.6 mb 0.00 in0.0 mm 0.00 in/hr0.0 mm/hr 0.00 in0.0 mm
11:30 PM 57.8°F14.3°C 42.7°F5.9°C 57% 4.0 mph NW6.4 kmh NW 11.0 mph17.7 kmh 30.08 in1018.6 mb 0.00 in0.0 mm 0.00 in/hr0.0 mm/hr 0.00 in0.0 mm
11:45 PM 57.3°F14.1°C 42.2°F5.7°C 57% 1.0 mph NNW1.6 kmh NNW 3.0 mph4.8 kmh 30.08 in1018.6 mb 0.00 in0.0 mm 0.00 in/hr0.0 mm/hr 0.00 in0.0 mm